createdAt,value
2023-03-20T00:08:05.840Z,9.2
2023-03-20T00:23:05.838Z,8.7
2023-03-20T00:37:05.867Z,8.3
2023-03-20T00:51:05.871Z,8.1
2023-03-20T01:05:06.079Z,8.2
2023-03-20T01:19:06.029Z,7.6
2023-03-20T01:33:05.954Z,7.4
2023-03-20T01:47:05.941Z,7.4
2023-03-20T02:01:06.000Z,7.2
2023-03-20T02:15:05.980Z,7.1
2023-03-20T02:29:06.006Z,7.3
2023-03-20T02:43:06.116Z,7.3
2023-03-20T02:57:06.077Z,7.3
2023-03-20T03:11:06.036Z,7.4
2023-03-20T03:25:06.019Z,7.6
2023-03-20T03:39:06.039Z,7.7
2023-03-20T03:53:06.057Z,7.9
2023-03-20T04:07:06.068Z,7.8
2023-03-20T04:21:06.084Z,8.6
2023-03-20T04:35:06.265Z,8.2
2023-03-20T04:49:06.098Z,7.9
2023-03-20T05:03:06.137Z,8.0
2023-03-20T05:17:06.139Z,7.8
2023-03-20T05:32:06.176Z,7.9
2023-03-20T05:47:06.184Z,8.1
2023-03-20T06:03:06.189Z,8.3
2023-03-20T06:18:06.197Z,8.5
2023-03-20T06:33:06.260Z,8.6
2023-03-20T06:48:06.355Z,8.5
2023-03-20T07:03:06.351Z,8.7
2023-03-20T07:18:06.270Z,9.7
2023-03-20T07:33:06.314Z,11.9
2023-03-20T07:48:06.299Z,12.0
2023-03-20T08:02:06.281Z,11.8
2023-03-20T08:16:06.347Z,13.1
2023-03-20T08:30:06.310Z,14.3
2023-03-20T08:44:06.448Z,15.4
2023-03-20T08:58:06.352Z,15.5
2023-03-20T09:12:07.207Z,15.1
2023-03-20T09:26:06.404Z,14.7
2023-03-20T09:40:06.396Z,15.4
2023-03-20T09:54:06.398Z,15.8
2023-03-20T10:08:06.414Z,15.2
2023-03-20T10:22:06.429Z,15.0
2023-03-20T10:36:06.465Z,15.4
2023-03-20T10:50:06.448Z,16.2
2023-03-20T11:04:06.511Z,16.7
2023-03-20T11:18:06.511Z,17.1
2023-03-20T11:32:06.596Z,17.8
2023-03-20T11:47:06.624Z,18.6
2023-03-20T12:02:06.672Z,18.4
2023-03-20T12:17:06.661Z,17.7
2023-03-20T12:32:06.565Z,18.3
2023-03-20T12:47:06.571Z,19.1
2023-03-20T13:02:06.603Z,18.6
2023-03-20T13:17:06.603Z,18.7
2023-03-20T13:32:06.631Z,19.4
2023-03-20T13:47:06.722Z,19.3
2023-03-20T14:02:06.663Z,19.0
2023-03-20T14:17:06.669Z,19.4
2023-03-20T14:32:06.699Z,19.6
2023-03-20T14:47:06.685Z,18.0
2023-03-20T15:02:06.690Z,16.8
2023-03-20T15:17:06.706Z,17.2
2023-03-20T15:32:14.183Z,17.8
2023-03-20T15:47:06.734Z,17.8
2023-03-20T16:02:06.799Z,17.5
2023-03-20T16:17:06.763Z,16.8
2023-03-20T16:32:06.785Z,16.2
2023-03-20T16:47:06.992Z,14.5
2023-03-20T17:02:06.799Z,13.5
2023-03-20T17:17:06.822Z,12.5
2023-03-20T17:33:06.888Z,11.4
2023-03-20T17:48:06.848Z,10.5
2023-03-20T18:03:06.866Z,10.1
2023-03-20T18:18:06.878Z,9.8
2023-03-20T18:32:06.885Z,9.7
2023-03-20T18:47:07.033Z,9.5
2023-03-20T19:01:06.903Z,9.0
2023-03-20T19:15:06.926Z,8.3
2023-03-20T19:29:09.046Z,8.0
2023-03-20T19:43:07.487Z,7.9
2023-03-20T19:57:06.968Z,7.8
2023-03-20T20:11:06.978Z,7.3
2023-03-20T20:25:06.990Z,7.2
2023-03-20T20:39:07.169Z,6.6
2023-03-20T20:53:07.080Z,6.6
2023-03-20T21:07:10.160Z,6.2
2023-03-20T21:21:07.054Z,6.1
2023-03-20T21:35:07.184Z,5.8
2023-03-20T21:49:50.250Z,6.1
2023-03-20T22:03:10.759Z,6.4
2023-03-20T22:17:53.018Z,6.2
2023-03-20T22:45:08.041Z,5.4
2023-03-20T22:59:07.117Z,5.1
2023-03-20T23:13:07.136Z,5.4
2023-03-20T23:27:07.156Z,5.9
2023-03-20T23:41:07.156Z,5.6
2023-03-20T23:55:07.172Z,5.1
